createdAt,value
2023-05-03T00:00:56.449Z,49.83
2023-05-03T00:03:25.568Z,49.91
2023-05-03T00:05:53.645Z,50.04
2023-05-03T00:08:21.852Z,50.00
2023-05-03T00:10:50.198Z,49.63
2023-05-03T00:13:18.241Z,49.65
2023-05-03T00:15:46.289Z,49.69
2023-05-03T00:18:16.155Z,50.01
2023-05-03T00:20:44.214Z,50.48
2023-05-03T00:23:12.162Z,50.29
2023-05-03T00:25:40.514Z,50.23
2023-05-03T00:28:08.821Z,50.61
2023-05-03T00:30:37.050Z,50.39
2023-05-03T00:33:05.766Z,50.29
2023-05-03T00:35:35.131Z,50.25
2023-05-03T00:38:03.273Z,50.02
2023-05-03T00:40:31.725Z,49.83
2023-05-03T00:42:59.956Z,50.28
2023-05-03T00:45:28.509Z,50.28
2023-05-03T00:47:56.878Z,50.24
2023-05-03T00:50:24.924Z,49.85
2023-05-03T00:52:54.440Z,50.31
2023-05-03T00:55:23.757Z,50.33
2023-05-03T00:57:51.771Z,50.32
2023-05-03T01:00:20.583Z,50.36
2023-05-03T01:02:49.415Z,50.54
2023-05-03T01:05:18.271Z,50.27
2023-05-03T01:08:02.978Z,50.57
2023-05-03T01:10:42.913Z,50.73
2023-05-03T01:13:20.192Z,51.30
2023-05-03T01:16:01.048Z,51.30
2023-05-03T01:18:32.952Z,50.90
2023-05-03T01:21:03.673Z,50.84
2023-05-03T01:23:37.466Z,50.79
2023-05-03T01:26:23.386Z,50.94
2023-05-03T01:28:51.779Z,51.30
2023-05-03T01:31:27.547Z,51.00
2023-05-03T01:34:09.219Z,51.36
2023-05-03T01:36:38.063Z,51.15
2023-05-03T01:39:10.829Z,51.08
2023-05-03T01:41:42.811Z,51.02
2023-05-03T01:44:12.447Z,51.01
2023-05-03T01:46:45.041Z,50.85
2023-05-03T01:49:13.300Z,51.20
2023-05-03T01:51:41.603Z,50.62
2023-05-03T01:54:09.660Z,50.52
2023-05-03T01:56:39.818Z,50.31
2023-05-03T01:59:08.199Z,50.47
2023-05-03T02:01:36.366Z,50.43
2023-05-03T02:04:04.773Z,50.92
2023-05-03T02:06:33.255Z,50.80
2023-05-03T02:09:01.251Z,50.84
2023-05-03T02:11:29.573Z,50.50
2023-05-03T02:13:59.113Z,51.05
2023-05-03T02:16:30.532Z,50.89
2023-05-03T02:18:59.604Z,51.34
2023-05-03T02:21:28.138Z,51.23
2023-05-03T02:23:56.224Z,51.23
2023-05-03T02:26:24.281Z,50.96
2023-05-03T02:28:52.812Z,50.96
2023-05-03T02:31:22.315Z,51.16
2023-05-03T02:33:50.371Z,51.38
2023-05-03T02:36:18.674Z,51.67
2023-05-03T02:38:47.929Z,51.68
2023-05-03T02:41:15.971Z,51.95
2023-05-03T02:43:44.896Z,51.87
2023-05-03T02:46:14.088Z,52.02
2023-05-03T02:48:43.378Z,52.00
2023-05-03T02:51:12.524Z,52.00
2023-05-03T02:53:40.705Z,51.99
2023-05-03T02:56:09.820Z,52.28
2023-05-03T02:58:38.036Z,52.10
2023-05-03T03:01:06.609Z,52.19
2023-05-03T03:03:34.877Z,52.22
2023-05-03T03:06:04.813Z,52.47
2023-05-03T03:08:33.958Z,52.36
2023-05-03T03:11:02.449Z,53.15
2023-05-03T03:13:30.839Z,52.67
2023-05-03T03:16:00.756Z,52.37
2023-05-03T03:18:29.064Z,52.95
2023-05-03T03:20:57.300Z,52.50
2023-05-03T03:23:26.814Z,53.43
2023-05-03T03:25:55.132Z,52.58
2023-05-03T03:28:23.754Z,52.36
2023-05-03T03:30:52.081Z,52.49
2023-05-03T03:33:24.419Z,52.61
2023-05-03T03:35:54.187Z,53.19
2023-05-03T03:38:22.970Z,52.69
2023-05-03T03:40:54.298Z,52.59
2023-05-03T03:43:22.665Z,52.93
2023-05-03T03:45:50.794Z,52.60
2023-05-03T03:48:18.989Z,52.85
2023-05-03T03:50:48.873Z,53.16
2023-05-03T03:53:17.086Z,53.35
2023-05-03T03:55:45.552Z,53.28
2023-05-03T03:58:16.271Z,53.26
2023-05-03T04:00:44.876Z,54.03
2023-05-03T04:03:13.510Z,53.19
2023-05-03T04:05:41.979Z,52.73
2023-05-03T04:08:10.527Z,52.93
2023-05-03T04:10:39.240Z,52.70
2023-05-03T04:13:10.379Z,52.85
2023-05-03T04:15:40.068Z,52.89
2023-05-03T04:18:08.790Z,52.67
2023-05-03T04:20:37.769Z,52.67
2023-05-03T04:23:06.613Z,53.08
2023-05-03T04:25:37.087Z,52.96
2023-05-03T04:28:06.914Z,53.25
2023-05-03T04:30:36.676Z,53.17
2023-05-03T04:33:06.680Z,53.47
2023-05-03T04:35:36.159Z,53.08
2023-05-03T04:38:05.355Z,53.22
2023-05-03T04:40:34.708Z,53.74
2023-05-03T04:43:02.862Z,53.03
2023-05-03T04:45:31.746Z,53.10
2023-05-03T04:48:00.321Z,53.71
2023-05-03T04:50:29.936Z,53.73
2023-05-03T04:52:58.492Z,53.30
2023-05-03T04:55:29.609Z,53.17
2023-05-03T04:57:58.615Z,53.44
2023-05-03T05:00:26.796Z,53.17
2023-05-03T05:02:56.814Z,53.48
2023-05-03T05:05:25.581Z,53.62
2023-05-03T05:07:55.158Z,53.54
2023-05-03T05:10:23.347Z,53.58
2023-05-03T05:12:52.767Z,53.48
2023-05-03T05:15:21.089Z,53.48
2023-05-03T05:17:50.021Z,53.73
2023-05-03T05:20:19.679Z,53.71
2023-05-03T05:22:48.255Z,53.59
2023-05-03T05:25:17.781Z,53.81
2023-05-03T05:27:46.194Z,53.83
2023-05-03T05:30:15.025Z,53.85
2023-05-03T05:32:43.772Z,53.58
2023-05-03T05:35:12.413Z,53.43
2023-05-03T05:37:40.472Z,53.63
2023-05-03T05:40:10.132Z,53.61
2023-05-03T05:42:40.458Z,53.44
2023-05-03T05:45:09.459Z,54.24
2023-05-03T05:47:37.972Z,53.43
2023-05-03T05:50:19.154Z,53.02
2023-05-03T05:52:48.197Z,53.97
2023-05-03T05:55:18.529Z,53.26
2023-05-03T05:57:48.032Z,53.90
2023-05-03T06:00:17.540Z,53.30
2023-05-03T06:02:46.894Z,53.48
2023-05-03T06:05:15.983Z,53.15
2023-05-03T06:07:44.216Z,52.99
2023-05-03T06:10:12.984Z,52.71
2023-05-03T06:12:41.992Z,52.61
2023-05-03T06:15:13.570Z,52.63
2023-05-03T06:17:42.503Z,52.55
2023-05-03T06:20:12.834Z,52.20
2023-05-03T06:22:41.828Z,51.88
2023-05-03T06:25:15.485Z,52.05
2023-05-03T06:27:46.570Z,51.62
2023-05-03T06:30:16.847Z,52.06
2023-05-03T06:32:48.685Z,52.18
2023-05-03T06:35:19.234Z,51.80
2023-05-03T06:37:47.399Z,51.36
2023-05-03T06:40:16.138Z,51.36
2023-05-03T06:42:44.918Z,51.30
2023-05-03T06:45:14.193Z,51.48
2023-05-03T06:47:43.965Z,51.27
2023-05-03T06:50:12.492Z,51.07
2023-05-03T06:52:41.341Z,50.90
2023-05-03T06:55:10.147Z,50.68
2023-05-03T06:57:38.650Z,50.53
2023-05-03T07:00:07.834Z,50.38
2023-05-03T07:02:36.045Z,49.75
2023-05-03T07:05:07.169Z,49.82
2023-05-03T07:07:35.536Z,49.80
2023-05-03T07:10:04.561Z,50.03
2023-05-03T07:12:33.155Z,49.53
2023-05-03T07:15:01.931Z,49.53
2023-05-03T07:17:30.272Z,48.87
2023-05-03T07:19:58.866Z,48.80
2023-05-03T07:22:28.184Z,48.50
2023-05-03T07:24:58.934Z,48.37
2023-05-03T07:27:27.402Z,48.07
2023-05-03T07:29:55.756Z,48.17
2023-05-03T07:32:24.203Z,47.72
2023-05-03T07:34:52.718Z,46.86
2023-05-03T07:37:22.295Z,47.21
2023-05-03T07:39:52.596Z,47.04
2023-05-03T07:42:21.030Z,46.94
2023-05-03T07:44:49.180Z,46.70
2023-05-03T07:47:17.187Z,47.22
2023-05-03T07:49:45.690Z,47.14
2023-05-03T07:52:13.611Z,46.56
2023-05-03T07:54:43.062Z,46.24
2023-05-03T07:57:13.018Z,46.05
2023-05-03T07:59:41.170Z,44.84
2023-05-03T08:02:09.480Z,45.69
2023-05-03T08:04:38.068Z,45.80
2023-05-03T08:07:06.248Z,45.41
2023-05-03T08:09:34.962Z,45.01
2023-05-03T08:12:03.672Z,45.97
2023-05-03T08:14:33.804Z,45.92
2023-05-03T08:17:01.892Z,45.12
2023-05-03T08:19:30.236Z,44.72
2023-05-03T08:21:58.497Z,45.01
2023-05-03T08:24:26.968Z,44.74
2023-05-03T08:26:55.409Z,44.79
2023-05-03T08:29:24.059Z,44.84
2023-05-03T08:31:54.205Z,44.30
2023-05-03T08:34:22.541Z,44.00
2023-05-03T08:36:51.109Z,44.34
2023-05-03T08:39:19.280Z,44.19
2023-05-03T08:41:48.599Z,43.51
2023-05-03T08:44:22.273Z,44.12
2023-05-03T08:46:50.782Z,42.47
2023-05-03T08:49:21.475Z,44.39
2023-05-03T08:51:50.697Z,43.76
2023-05-03T08:54:20.758Z,43.89
2023-05-03T08:56:49.708Z,43.86
2023-05-03T08:59:17.820Z,43.64
2023-05-03T09:01:46.617Z,43.74
2023-05-03T09:04:15.258Z,44.01
2023-05-03T09:06:44.699Z,43.98
2023-05-03T09:09:14.195Z,43.23
2023-05-03T09:11:42.225Z,43.99
2023-05-03T09:14:12.057Z,42.97
2023-05-03T09:16:41.354Z,43.03
2023-05-03T09:19:12.018Z,43.17
2023-05-03T09:21:42.130Z,42.73
2023-05-03T09:24:19.227Z,42.89
2023-05-03T09:26:48.723Z,37.26
2023-05-03T09:29:30.328Z,42.16
2023-05-03T09:32:05.469Z,39.39
2023-05-03T09:34:34.408Z,42.44
2023-05-03T09:37:02.852Z,42.19
2023-05-03T09:39:32.404Z,42.15
2023-05-03T09:42:02.927Z,41.68
2023-05-03T09:44:42.854Z,41.75
2023-05-03T09:47:11.999Z,38.12
2023-05-03T09:49:40.713Z,42.35
2023-05-03T09:52:09.745Z,41.26
2023-05-03T09:54:39.965Z,39.99
2023-05-03T09:57:10.110Z,41.55
2023-05-03T09:59:39.652Z,40.97
2023-05-03T10:02:09.223Z,40.33
2023-05-03T10:04:43.435Z,40.23
2023-05-03T10:07:15.365Z,37.84
2023-05-03T10:09:46.360Z,40.83
2023-05-03T10:12:17.456Z,39.13
2023-05-03T10:14:48.288Z,41.62
2023-05-03T10:17:31.872Z,40.83
2023-05-03T10:20:17.141Z,40.68
2023-05-03T10:23:14.016Z,40.23
2023-05-03T10:26:14.436Z,36.45
2023-05-03T10:28:43.565Z,34.84
2023-05-03T10:31:47.081Z,38.93
2023-05-03T10:34:23.303Z,35.30
2023-05-03T10:36:54.132Z,36.46
2023-05-03T10:39:23.035Z,40.08
2023-05-03T10:42:04.869Z,39.57
2023-05-03T10:44:39.692Z,35.61
2023-05-03T10:47:13.684Z,37.24
2023-05-03T10:49:42.022Z,38.12
2023-05-03T10:52:47.076Z,40.14
2023-05-03T10:55:18.358Z,35.77
2023-05-03T10:57:50.434Z,38.44
2023-05-03T11:00:24.468Z,39.10
2023-05-03T11:03:23.763Z,37.90
2023-05-03T11:05:54.049Z,35.13
2023-05-03T11:08:25.997Z,39.14
2023-05-03T11:11:00.364Z,38.50
2023-05-03T11:13:30.514Z,37.32
2023-05-03T11:15:59.129Z,39.27
2023-05-03T11:18:28.022Z,39.51
2023-05-03T11:20:56.674Z,39.30
2023-05-03T11:23:27.524Z,39.05
2023-05-03T11:25:56.613Z,39.14
2023-05-03T11:28:25.047Z,39.04
2023-05-03T11:30:54.873Z,37.32
2023-05-03T11:33:23.004Z,38.46
2023-05-03T11:35:51.470Z,38.53
2023-05-03T11:38:19.471Z,38.50
2023-05-03T11:40:47.557Z,38.60
2023-05-03T11:43:16.025Z,38.31
2023-05-03T11:45:49.824Z,36.21
2023-05-03T11:48:19.880Z,37.20
2023-05-03T11:50:51.687Z,38.32
2023-05-03T11:53:20.693Z,38.28
2023-05-03T11:55:50.860Z,37.79
2023-05-03T11:58:20.966Z,38.00
2023-05-03T12:00:51.528Z,37.85
2023-05-03T12:03:25.718Z,37.46
2023-05-03T12:05:57.362Z,36.69
2023-05-03T12:08:31.305Z,36.95
2023-05-03T12:11:03.651Z,36.64
2023-05-03T12:13:37.714Z,37.29
2023-05-03T12:16:13.597Z,37.63
2023-05-03T12:18:50.282Z,37.63
2023-05-03T12:23:55.463Z,36.53
2023-05-03T12:26:25.715Z,36.74
2023-05-03T12:28:56.613Z,35.74
2023-05-03T12:31:28.937Z,37.35
2023-05-03T12:34:27.581Z,37.38
2023-05-03T12:36:49.120Z,37.01
2023-05-03T12:39:21.617Z,37.78
2023-05-03T12:42:06.831Z,37.48
2023-05-03T12:44:42.353Z,37.65
2023-05-03T12:47:12.160Z,37.12
2023-05-03T12:49:46.361Z,37.13
2023-05-03T12:54:48.907Z,36.83
2023-05-03T12:57:23.264Z,36.63
2023-05-03T13:00:01.631Z,36.96
2023-05-03T13:05:11.854Z,35.57
2023-05-03T13:07:55.698Z,35.61
2023-05-03T13:10:24.791Z,36.34
2023-05-03T13:12:53.960Z,36.61
2023-05-03T13:15:25.208Z,36.65
2023-05-03T13:17:54.866Z,36.13
2023-05-03T13:20:24.756Z,35.87
2023-05-03T13:22:52.805Z,35.75
2023-05-03T13:25:24.597Z,36.04
2023-05-03T13:27:56.175Z,35.87
2023-05-03T13:30:25.448Z,35.62
2023-05-03T13:32:54.285Z,35.59
2023-05-03T13:35:24.808Z,35.92
2023-05-03T13:37:55.374Z,35.47
2023-05-03T13:40:27.094Z,34.88
2023-05-03T13:42:55.417Z,35.06
2023-05-03T13:45:23.625Z,35.12
2023-05-03T13:50:24.340Z,35.46
2023-05-03T13:52:52.924Z,35.78
2023-05-03T13:55:21.910Z,34.76
2023-05-03T13:57:50.276Z,35.23
2023-05-03T14:00:20.734Z,35.12
2023-05-03T14:02:49.280Z,35.22
2023-05-03T14:05:19.707Z,33.72
2023-05-03T14:07:49.257Z,34.45
2023-05-03T14:10:18.010Z,34.18
2023-05-03T14:12:46.411Z,33.46
2023-05-03T14:15:15.233Z,34.41
2023-05-03T14:17:43.920Z,34.02
2023-05-03T14:20:13.089Z,34.91
2023-05-03T14:22:41.567Z,33.95
2023-05-03T14:25:11.643Z,33.78
2023-05-03T14:27:43.417Z,34.09
2023-05-03T14:30:12.774Z,35.05
2023-05-03T14:32:40.872Z,35.05
2023-05-03T14:35:09.952Z,35.07
2023-05-03T14:37:38.569Z,35.16
2023-05-03T14:40:08.374Z,34.61
2023-05-03T14:42:38.157Z,34.66
2023-05-03T14:45:10.143Z,34.32
2023-05-03T14:47:40.828Z,33.96
2023-05-03T14:50:10.308Z,34.20
2023-05-03T14:52:38.717Z,33.52
2023-05-03T14:55:08.084Z,33.27
2023-05-03T14:57:38.233Z,32.99
2023-05-03T15:00:14.026Z,34.27
2023-05-03T15:02:43.553Z,34.77
2023-05-03T15:05:12.830Z,34.50
2023-05-03T15:07:41.246Z,34.69
2023-05-03T15:10:10.262Z,34.46
2023-05-03T15:12:39.976Z,33.49
2023-05-03T15:15:09.675Z,33.44
2023-05-03T15:17:38.098Z,32.97
2023-05-03T15:20:10.434Z,33.57
2023-05-03T15:22:38.757Z,32.33
2023-05-03T15:25:07.953Z,31.75
2023-05-03T15:27:36.018Z,31.77
2023-05-03T15:30:07.262Z,31.54
2023-05-03T15:32:35.648Z,29.87
2023-05-03T15:35:03.705Z,31.09
2023-05-03T15:37:36.944Z,31.57
2023-05-03T15:40:06.357Z,28.42
2023-05-03T15:42:34.899Z,31.31
2023-05-03T15:45:03.135Z,31.18
2023-05-03T15:47:35.360Z,31.18
2023-05-03T15:50:04.089Z,30.72
2023-05-03T15:52:32.725Z,31.37
2023-05-03T15:55:00.796Z,30.73
2023-05-03T15:57:30.298Z,30.46
2023-05-03T15:59:59.169Z,30.52
2023-05-03T16:02:27.418Z,30.66
2023-05-03T16:04:57.316Z,29.94
2023-05-03T16:07:26.535Z,30.43
2023-05-03T16:09:54.762Z,30.21
2023-05-03T16:12:23.110Z,30.46
2023-05-03T16:14:51.393Z,30.94
2023-05-03T16:17:19.476Z,30.33
2023-05-03T16:19:47.908Z,30.84
2023-05-03T16:22:17.523Z,31.47
2023-05-03T16:24:46.918Z,30.34
2023-05-03T16:27:15.313Z,30.61
2023-05-03T16:29:43.612Z,31.05
2023-05-03T16:32:12.390Z,31.24
2023-05-03T16:34:40.803Z,31.01
2023-05-03T16:37:08.877Z,30.99
2023-05-03T16:39:38.890Z,30.09
2023-05-03T16:42:07.656Z,30.11
2023-05-03T16:44:36.080Z,30.75
2023-05-03T16:47:05.009Z,30.97
2023-05-03T16:49:36.121Z,31.13
2023-05-03T16:52:04.268Z,30.61
2023-05-03T16:54:32.449Z,31.00
2023-05-03T16:57:02.665Z,30.96
2023-05-03T16:59:31.257Z,30.61
2023-05-03T17:01:59.360Z,30.94
2023-05-03T17:04:29.366Z,31.32
2023-05-03T17:06:57.776Z,31.19
2023-05-03T17:09:25.976Z,30.95
2023-05-03T17:11:54.346Z,30.91
2023-05-03T17:14:23.827Z,30.71
2023-05-03T17:16:52.594Z,31.17
2023-05-03T17:19:21.384Z,30.83
2023-05-03T17:21:49.506Z,30.87
2023-05-03T17:24:17.910Z,30.98
2023-05-03T17:26:46.288Z,30.93
2023-05-03T17:29:15.046Z,30.59
2023-05-03T17:31:47.610Z,30.64
2023-05-03T17:34:20.681Z,28.53
2023-05-03T17:36:48.996Z,30.94
2023-05-03T17:39:17.377Z,31.46
2023-05-03T17:41:46.176Z,31.42
2023-05-03T17:44:14.403Z,31.68
2023-05-03T17:46:44.644Z,32.12
2023-05-03T17:49:12.866Z,32.55
2023-05-03T17:51:41.465Z,33.10
2023-05-03T17:54:12.014Z,33.59
2023-05-03T17:56:41.832Z,33.76
2023-05-03T17:59:37.191Z,33.94
2023-05-03T18:02:09.082Z,34.11
2023-05-03T18:04:37.619Z,34.05
2023-05-03T18:07:05.822Z,34.56
2023-05-03T18:09:34.124Z,34.66
2023-05-03T18:12:03.545Z,34.64
2023-05-03T18:14:31.954Z,34.65
2023-05-03T18:16:59.983Z,34.88
2023-05-03T18:19:29.815Z,35.32
2023-05-03T18:21:57.877Z,35.71
2023-05-03T18:24:26.002Z,36.05
2023-05-03T18:26:54.341Z,36.13
2023-05-03T18:29:22.374Z,36.18
2023-05-03T18:31:52.550Z,36.33
2023-05-03T18:34:20.952Z,36.90
2023-05-03T18:36:50.327Z,37.18
2023-05-03T18:39:18.818Z,37.12
2023-05-03T18:41:47.510Z,37.22
2023-05-03T18:44:15.837Z,37.31
2023-05-03T18:46:44.371Z,37.61
2023-05-03T18:49:12.772Z,38.00
2023-05-03T18:51:41.030Z,37.93
2023-05-03T18:54:10.495Z,37.73
2023-05-03T18:56:38.858Z,37.69
2023-05-03T18:59:07.010Z,37.63
2023-05-03T19:01:35.081Z,37.80
2023-05-03T19:04:04.532Z,38.24
2023-05-03T19:06:32.713Z,38.66
2023-05-03T19:09:00.773Z,38.74
2023-05-03T19:11:31.110Z,39.31
2023-05-03T19:13:59.165Z,39.23
2023-05-03T19:16:27.969Z,39.31
2023-05-03T19:18:56.436Z,39.46
2023-05-03T19:21:24.512Z,39.60
2023-05-03T19:23:52.513Z,39.75
2023-05-03T19:26:20.845Z,39.75
2023-05-03T19:28:50.185Z,39.72
2023-05-03T19:31:18.892Z,39.75
2023-05-03T19:33:47.295Z,39.83
2023-05-03T19:36:15.441Z,40.00
2023-05-03T19:38:43.534Z,40.04
2023-05-03T19:41:12.872Z,40.09
2023-05-03T19:43:41.430Z,40.26
2023-05-03T19:46:11.129Z,40.44
2023-05-03T19:48:39.620Z,40.71
2023-05-03T19:51:07.585Z,41.06
2023-05-03T19:53:37.731Z,40.85
2023-05-03T19:56:07.120Z,41.03
2023-05-03T19:58:35.086Z,40.97
2023-05-03T20:01:03.177Z,41.40
2023-05-03T20:03:34.253Z,41.32
2023-05-03T20:06:02.515Z,41.51
2023-05-03T20:08:31.481Z,41.53
2023-05-03T20:10:59.993Z,41.54
2023-05-03T20:13:30.211Z,41.76
2023-05-03T20:15:58.227Z,41.88
2023-05-03T20:18:26.726Z,41.90
2023-05-03T20:20:56.298Z,42.13
2023-05-03T20:23:24.420Z,42.65
2023-05-03T20:25:52.780Z,42.50
2023-05-03T20:28:20.944Z,42.28
2023-05-03T20:30:49.116Z,42.33
2023-05-03T20:33:17.431Z,42.42
2023-05-03T20:35:45.429Z,42.57
2023-05-03T20:38:15.154Z,42.62
2023-05-03T20:40:43.383Z,42.76
2023-05-03T20:43:11.456Z,42.83
2023-05-03T20:45:39.556Z,42.88
2023-05-03T20:48:09.005Z,42.89
2023-05-03T20:50:37.183Z,43.08
2023-05-03T20:53:05.678Z,43.21
2023-05-03T20:55:35.328Z,43.08
2023-05-03T20:58:03.816Z,43.04
2023-05-03T21:00:31.841Z,43.02
2023-05-03T21:03:00.327Z,43.03
2023-05-03T21:05:28.683Z,43.49
2023-05-03T21:07:56.834Z,43.78
2023-05-03T21:10:25.269Z,43.60
2023-05-03T21:12:54.677Z,43.41
2023-05-03T21:15:22.767Z,43.73
2023-05-03T21:17:51.211Z,44.09
2023-05-03T21:20:19.564Z,44.06
2023-05-03T21:22:47.650Z,44.31
2023-05-03T21:25:16.162Z,44.37
2023-05-03T21:27:44.184Z,44.26
2023-05-03T21:30:14.952Z,44.29
2023-05-03T21:32:46.234Z,44.33
2023-05-03T21:35:14.641Z,44.23
2023-05-03T21:37:42.835Z,44.22
2023-05-03T21:40:13.267Z,44.12
2023-05-03T21:42:41.286Z,44.47
2023-05-03T21:45:10.611Z,44.68
2023-05-03T21:47:40.361Z,44.52
2023-05-03T21:50:09.136Z,44.58
2023-05-03T21:52:38.028Z,45.04
2023-05-03T21:55:07.452Z,44.96
2023-05-03T21:57:35.638Z,45.00
2023-05-03T22:00:05.181Z,44.98
2023-05-03T22:02:36.523Z,44.95
2023-05-03T22:05:06.638Z,45.08
2023-05-03T22:07:34.937Z,45.60
2023-05-03T22:10:03.620Z,45.55
2023-05-03T22:12:32.082Z,45.67
2023-05-03T22:15:00.162Z,46.11
2023-05-03T22:17:28.408Z,46.49
2023-05-03T22:19:56.826Z,46.57
2023-05-03T22:22:26.217Z,45.95
2023-05-03T22:25:00.658Z,45.87
2023-05-03T22:27:29.087Z,45.85
2023-05-03T22:29:57.177Z,45.94
2023-05-03T22:32:25.407Z,45.76
2023-05-03T22:34:53.665Z,45.75
2023-05-03T22:37:22.065Z,45.74
2023-05-03T22:39:51.462Z,45.84
2023-05-03T22:42:19.773Z,45.76
2023-05-03T22:44:47.797Z,46.02
2023-05-03T22:47:15.845Z,45.99
2023-05-03T22:49:44.074Z,45.81
2023-05-03T22:52:12.153Z,46.40
2023-05-03T22:54:40.174Z,46.27
2023-05-03T22:57:10.160Z,46.13
2023-05-03T22:59:38.619Z,46.79
2023-05-03T23:02:06.617Z,46.43
2023-05-03T23:04:34.883Z,46.40
2023-05-03T23:07:03.169Z,46.08
2023-05-03T23:09:31.262Z,46.38
2023-05-03T23:12:00.575Z,46.25
2023-05-03T23:14:29.980Z,46.40
2023-05-03T23:16:58.381Z,46.43
2023-05-03T23:19:26.657Z,46.69
2023-05-03T23:21:54.819Z,46.83
2023-05-03T23:24:23.094Z,46.73
2023-05-03T23:26:51.277Z,46.58
2023-05-03T23:29:19.787Z,46.69
2023-05-03T23:31:52.766Z,46.84
2023-05-03T23:34:22.080Z,46.64
2023-05-03T23:36:50.427Z,46.60
2023-05-03T23:39:18.679Z,46.61
2023-05-03T23:41:47.006Z,46.53
2023-05-03T23:44:15.091Z,46.72
2023-05-03T23:46:43.198Z,46.66
2023-05-03T23:49:12.869Z,46.95
2023-05-03T23:51:40.970Z,46.61
2023-05-03T23:54:09.428Z,46.40
2023-05-03T23:56:37.726Z,46.70
2023-05-03T23:59:06.382Z,47.61
